sensor_id;sensor_type;location;lat;lon;timestamp;temperature;humidity
7900;DHT22;3995;50.856;4.404;2023-03-14T00:00:31;14.50;59.20
7900;DHT22;3995;50.856;4.404;2023-03-14T00:02:59;14.50;59.20
7900;DHT22;3995;50.856;4.404;2023-03-14T00:05:27;14.50;59.30
7900;DHT22;3995;50.856;4.404;2023-03-14T00:07:55;14.50;59.40
7900;DHT22;3995;50.856;4.404;2023-03-14T00:10:22;14.50;59.50
7900;DHT22;3995;50.856;4.404;2023-03-14T00:12:50;14.40;59.60
7900;DHT22;3995;50.856;4.404;2023-03-14T00:15:17;14.40;59.70
7900;DHT22;3995;50.856;4.404;2023-03-14T00:17:44;14.40;59.80
7900;DHT22;3995;50.856;4.404;2023-03-14T00:20:12;14.40;60.00
7900;DHT22;3995;50.856;4.404;2023-03-14T00:22:40;14.40;60.10
7900;DHT22;3995;50.856;4.404;2023-03-14T00:25:11;14.40;60.20
7900;DHT22;3995;50.856;4.404;2023-03-14T00:27:38;14.40;60.40
7900;DHT22;3995;50.856;4.404;2023-03-14T00:30:06;14.40;60.50
7900;DHT22;3995;50.856;4.404;2023-03-14T00:32:36;14.40;60.60
7900;DHT22;3995;50.856;4.404;2023-03-14T00:35:04;14.40;60.70
7900;DHT22;3995;50.856;4.404;2023-03-14T00:37:31;14.40;60.90
7900;DHT22;3995;50.856;4.404;2023-03-14T00:39:58;14.40;61.00
7900;DHT22;3995;50.856;4.404;2023-03-14T00:42:27;14.40;61.00
7900;DHT22;3995;50.856;4.404;2023-03-14T00:44:54;14.40;60.90
7900;DHT22;3995;50.856;4.404;2023-03-14T00:47:22;14.40;61.00
7900;DHT22;3995;50.856;4.404;2023-03-14T00:49:49;14.40;61.10
7900;DHT22;3995;50.856;4.404;2023-03-14T00:52:16;14.40;61.10
7900;DHT22;3995;50.856;4.404;2023-03-14T00:54:44;14.30;61.00
7900;DHT22;3995;50.856;4.404;2023-03-14T00:57:11;14.40;61.20
7900;DHT22;3995;50.856;4.404;2023-03-14T00:59:40;14.40;61.20
7900;DHT22;3995;50.856;4.404;2023-03-14T01:02:07;14.40;61.10
7900;DHT22;3995;50.856;4.404;2023-03-14T01:04:35;14.40;61.10
7900;DHT22;3995;50.856;4.404;2023-03-14T01:07:03;14.40;61.00
7900;DHT22;3995;50.856;4.404;2023-03-14T01:09:30;14.40;61.10
7900;DHT22;3995;50.856;4.404;2023-03-14T01:11:57;14.40;61.20
7900;DHT22;3995;50.856;4.404;2023-03-14T01:14:24;14.40;61.10
7900;DHT22;3995;50.856;4.404;2023-03-14T01:16:53;14.40;61.00
7900;DHT22;3995;50.856;4.404;2023-03-14T01:19:26;14.40;61.00
7900;DHT22;3995;50.856;4.404;2023-03-14T01:21:53;14.40;61.00
7900;DHT22;3995;50.856;4.404;2023-03-14T01:24:20;14.30;60.90
7900;DHT22;3995;50.856;4.404;2023-03-14T01:26:48;14.30;60.80
7900;DHT22;3995;50.856;4.404;2023-03-14T01:29:15;14.30;60.90
7900;DHT22;3995;50.856;4.404;2023-03-14T01:31:43;14.30;60.90
7900;DHT22;3995;50.856;4.404;2023-03-14T01:34:12;14.30;60.90
7900;DHT22;3995;50.856;4.404;2023-03-14T01:36:40;14.30;60.90
7900;DHT22;3995;50.856;4.404;2023-03-14T01:39:07;14.30;60.80
7900;DHT22;3995;50.856;4.404;2023-03-14T01:41:35;14.30;60.70
7900;DHT22;3995;50.856;4.404;2023-03-14T01:44:02;14.20;60.60
7900;DHT22;3995;50.856;4.404;2023-03-14T01:46:36;14.20;60.60
7900;DHT22;3995;50.856;4.404;2023-03-14T01:49:07;14.30;60.60
7900;DHT22;3995;50.856;4.404;2023-03-14T01:51:42;14.20;60.50
7900;DHT22;3995;50.856;4.404;2023-03-14T01:54:16;14.20;60.60
7900;DHT22;3995;50.856;4.404;2023-03-14T01:56:48;14.20;60.60
7900;DHT22;3995;50.856;4.404;2023-03-14T01:59:16;14.20;60.70
7900;DHT22;3995;50.856;4.404;2023-03-14T02:01:45;14.10;60.70
7900;DHT22;3995;50.856;4.404;2023-03-14T02:04:13;14.10;61.10
7900;DHT22;3995;50.856;4.404;2023-03-14T02:06:49;14.10;61.50
7900;DHT22;3995;50.856;4.404;2023-03-14T02:09:17;14.20;62.00
7900;DHT22;3995;50.856;4.404;2023-03-14T02:11:45;14.10;62.20
7900;DHT22;3995;50.856;4.404;2023-03-14T02:14:20;14.10;62.50
7900;DHT22;3995;50.856;4.404;2023-03-14T02:16:50;14.10;63.00
7900;DHT22;3995;50.856;4.404;2023-03-14T02:19:22;14.10;63.40
7900;DHT22;3995;50.856;4.404;2023-03-14T02:21:57;14.10;63.90
7900;DHT22;3995;50.856;4.404;2023-03-14T02:24:34;14.10;64.30
7900;DHT22;3995;50.856;4.404;2023-03-14T02:27:11;14.10;64.40
7900;DHT22;3995;50.856;4.404;2023-03-14T02:29:44;14.10;64.60
7900;DHT22;3995;50.856;4.404;2023-03-14T02:32:13;14.10;64.80
7900;DHT22;3995;50.856;4.404;2023-03-14T02:34:43;14.10;64.90
7900;DHT22;3995;50.856;4.404;2023-03-14T02:37:13;14.10;65.10
7900;DHT22;3995;50.856;4.404;2023-03-14T02:39:44;14.10;65.30
7900;DHT22;3995;50.856;4.404;2023-03-14T02:42:13;14.10;65.30
7900;DHT22;3995;50.856;4.404;2023-03-14T02:44:49;14.00;65.40
7900;DHT22;3995;50.856;4.404;2023-03-14T02:47:31;14.10;65.50
7900;DHT22;3995;50.856;4.404;2023-03-14T02:50:01;14.00;65.70
7900;DHT22;3995;50.856;4.404;2023-03-14T02:52:29;14.00;65.80
7900;DHT22;3995;50.856;4.404;2023-03-14T02:54:57;14.00;66.00
7900;DHT22;3995;50.856;4.404;2023-03-14T02:57:26;14.00;66.10
7900;DHT22;3995;50.856;4.404;2023-03-14T02:59:53;14.00;66.20
7900;DHT22;3995;50.856;4.404;2023-03-14T03:02:20;14.00;66.40
7900;DHT22;3995;50.856;4.404;2023-03-14T03:04:48;14.00;66.40
7900;DHT22;3995;50.856;4.404;2023-03-14T03:07:15;14.00;66.50
7900;DHT22;3995;50.856;4.404;2023-03-14T03:09:45;14.00;66.60
7900;DHT22;3995;50.856;4.404;2023-03-14T03:12:12;14.00;66.60
7900;DHT22;3995;50.856;4.404;2023-03-14T03:14:41;14.00;66.70
7900;DHT22;3995;50.856;4.404;2023-03-14T03:17:08;14.00;66.80
7900;DHT22;3995;50.856;4.404;2023-03-14T03:19:36;14.00;66.80
7900;DHT22;3995;50.856;4.404;2023-03-14T03:22:03;14.00;66.80
7900;DHT22;3995;50.856;4.404;2023-03-14T03:24:30;14.00;66.80
7900;DHT22;3995;50.856;4.404;2023-03-14T03:26:58;14.00;66.90
7900;DHT22;3995;50.856;4.404;2023-03-14T03:29:25;14.00;66.90
7900;DHT22;3995;50.856;4.404;2023-03-14T03:31:54;14.00;66.90
7900;DHT22;3995;50.856;4.404;2023-03-14T03:34:21;14.00;67.00
7900;DHT22;3995;50.856;4.404;2023-03-14T03:36:48;14.00;67.20
7900;DHT22;3995;50.856;4.404;2023-03-14T03:39:16;14.00;67.20
7900;DHT22;3995;50.856;4.404;2023-03-14T03:41:42;14.00;67.20
7900;DHT22;3995;50.856;4.404;2023-03-14T03:44:10;14.00;67.30
7900;DHT22;3995;50.856;4.404;2023-03-14T03:46:38;14.00;67.30
7900;DHT22;3995;50.856;4.404;2023-03-14T03:49:07;14.00;67.40
7900;DHT22;3995;50.856;4.404;2023-03-14T03:51:34;14.00;67.40
7900;DHT22;3995;50.856;4.404;2023-03-14T03:54:01;14.00;67.40
7900;DHT22;3995;50.856;4.404;2023-03-14T03:56:29;14.00;67.50
7900;DHT22;3995;50.856;4.404;2023-03-14T03:58:57;14.00;67.60
7900;DHT22;3995;50.856;4.404;2023-03-14T04:01:24;14.00;67.60
7900;DHT22;3995;50.856;4.404;2023-03-14T04:03:51;14.00;67.70
7900;DHT22;3995;50.856;4.404;2023-03-14T04:06:20;14.00;67.80
7900;DHT22;3995;50.856;4.404;2023-03-14T04:08:48;14.00;67.80
7900;DHT22;3995;50.856;4.404;2023-03-14T04:11:15;14.00;67.80
7900;DHT22;3995;50.856;4.404;2023-03-14T04:13:42;14.00;67.80
7900;DHT22;3995;50.856;4.404;2023-03-14T04:16:15;14.00;67.80
7900;DHT22;3995;50.856;4.404;2023-03-14T04:18:43;14.10;67.90
7900;DHT22;3995;50.856;4.404;2023-03-14T04:21:10;14.00;67.80
7900;DHT22;3995;50.856;4.404;2023-03-14T04:23:39;14.00;67.80
7900;DHT22;3995;50.856;4.404;2023-03-14T04:26:06;14.00;67.80
7900;DHT22;3995;50.856;4.404;2023-03-14T04:28:34;14.00;67.90
7900;DHT22;3995;50.856;4.404;2023-03-14T04:31:07;14.00;68.00
7900;DHT22;3995;50.856;4.404;2023-03-14T04:33:34;14.00;68.00
7900;DHT22;3995;50.856;4.404;2023-03-14T04:36:03;14.00;68.10
7900;DHT22;3995;50.856;4.404;2023-03-14T04:38:30;14.00;68.10
7900;DHT22;3995;50.856;4.404;2023-03-14T04:40:59;14.00;68.20
7900;DHT22;3995;50.856;4.404;2023-03-14T04:43:27;14.00;68.20
7900;DHT22;3995;50.856;4.404;2023-03-14T04:45:54;14.00;68.20
7900;DHT22;3995;50.856;4.404;2023-03-14T04:48:22;14.00;68.40
7900;DHT22;3995;50.856;4.404;2023-03-14T04:50:50;14.00;68.40
7900;DHT22;3995;50.856;4.404;2023-03-14T04:53:18;14.00;68.50
7900;DHT22;3995;50.856;4.404;2023-03-14T04:55:48;14.00;68.50
7900;DHT22;3995;50.856;4.404;2023-03-14T04:58:16;14.00;68.60
7900;DHT22;3995;50.856;4.404;2023-03-14T05:00:44;14.00;68.70
7900;DHT22;3995;50.856;4.404;2023-03-14T05:03:12;14.00;68.80
7900;DHT22;3995;50.856;4.404;2023-03-14T05:05:41;14.00;68.80
7900;DHT22;3995;50.856;4.404;2023-03-14T05:08:09;14.00;68.90
7900;DHT22;3995;50.856;4.404;2023-03-14T05:10:37;14.00;68.90
7900;DHT22;3995;50.856;4.404;2023-03-14T05:13:04;13.90;68.90
7900;DHT22;3995;50.856;4.404;2023-03-14T05:15:33;13.90;69.00
7900;DHT22;3995;50.856;4.404;2023-03-14T05:18:00;14.00;69.10
7900;DHT22;3995;50.856;4.404;2023-03-14T05:20:28;13.90;69.00
7900;DHT22;3995;50.856;4.404;2023-03-14T05:22:55;14.00;69.20
7900;DHT22;3995;50.856;4.404;2023-03-14T05:25:22;13.90;69.10
7900;DHT22;3995;50.856;4.404;2023-03-14T05:27:49;13.90;69.10
7900;DHT22;3995;50.856;4.404;2023-03-14T05:30:17;13.90;69.30
7900;DHT22;3995;50.856;4.404;2023-03-14T05:32:46;13.90;69.40
7900;DHT22;3995;50.856;4.404;2023-03-14T05:35:13;13.90;69.50
7900;DHT22;3995;50.856;4.404;2023-03-14T05:37:40;13.90;69.70
7900;DHT22;3995;50.856;4.404;2023-03-14T05:40:09;13.90;69.90
7900;DHT22;3995;50.856;4.404;2023-03-14T05:42:37;13.90;70.00
7900;DHT22;3995;50.856;4.404;2023-03-14T05:45:05;13.90;70.10
7900;DHT22;3995;50.856;4.404;2023-03-14T05:47:32;13.90;70.20
7900;DHT22;3995;50.856;4.404;2023-03-14T05:50:02;13.90;70.20
7900;DHT22;3995;50.856;4.404;2023-03-14T05:52:29;13.90;70.20
7900;DHT22;3995;50.856;4.404;2023-03-14T05:54:56;13.80;70.70
7900;DHT22;3995;50.856;4.404;2023-03-14T05:57:24;13.80;70.10
7900;DHT22;3995;50.856;4.404;2023-03-14T05:59:51;13.80;70.20
7900;DHT22;3995;50.856;4.404;2023-03-14T06:02:19;13.80;70.30
7900;DHT22;3995;50.856;4.404;2023-03-14T06:04:46;13.80;70.30
7900;DHT22;3995;50.856;4.404;2023-03-14T06:07:15;13.80;70.40
7900;DHT22;3995;50.856;4.404;2023-03-14T06:09:42;13.70;70.30
7900;DHT22;3995;50.856;4.404;2023-03-14T06:12:10;13.70;70.40
7900;DHT22;3995;50.856;4.404;2023-03-14T06:14:37;13.70;70.30
7900;DHT22;3995;50.856;4.404;2023-03-14T06:17:05;13.70;70.30
7900;DHT22;3995;50.856;4.404;2023-03-14T06:19:32;13.70;70.40
7900;DHT22;3995;50.856;4.404;2023-03-14T06:21:59;13.70;70.30
7900;DHT22;3995;50.856;4.404;2023-03-14T06:24:28;13.70;70.30
7900;DHT22;3995;50.856;4.404;2023-03-14T06:26:56;13.70;70.30
7900;DHT22;3995;50.856;4.404;2023-03-14T06:29:23;13.70;70.40
7900;DHT22;3995;50.856;4.404;2023-03-14T06:31:50;13.70;70.60
7900;DHT22;3995;50.856;4.404;2023-03-14T06:34:17;13.70;70.70
7900;DHT22;3995;50.856;4.404;2023-03-14T06:36:45;13.70;70.70
7900;DHT22;3995;50.856;4.404;2023-03-14T06:39:12;13.70;70.70
7900;DHT22;3995;50.856;4.404;2023-03-14T06:41:41;13.70;70.70
7900;DHT22;3995;50.856;4.404;2023-03-14T06:44:08;13.70;70.80
7900;DHT22;3995;50.856;4.404;2023-03-14T06:46:35;13.70;70.90
7900;DHT22;3995;50.856;4.404;2023-03-14T06:49:03;13.70;71.00
7900;DHT22;3995;50.856;4.404;2023-03-14T06:51:30;13.70;71.00
7900;DHT22;3995;50.856;4.404;2023-03-14T06:53:58;13.70;70.50
7900;DHT22;3995;50.856;4.404;2023-03-14T06:56:25;13.60;70.20
7900;DHT22;3995;50.856;4.404;2023-03-14T06:58:54;13.60;69.80
7900;DHT22;3995;50.856;4.404;2023-03-14T07:01:24;13.50;69.40
7900;DHT22;3995;50.856;4.404;2023-03-14T07:03:52;13.50;69.20
7900;DHT22;3995;50.856;4.404;2023-03-14T07:06:19;13.40;68.80
7900;DHT22;3995;50.856;4.404;2023-03-14T07:08:46;13.30;68.70
7900;DHT22;3995;50.856;4.404;2023-03-14T07:11:14;13.30;68.50
7900;DHT22;3995;50.856;4.404;2023-03-14T07:13:41;13.20;68.50
7900;DHT22;3995;50.856;4.404;2023-03-14T07:16:10;13.20;68.30
7900;DHT22;3995;50.856;4.404;2023-03-14T07:18:37;13.20;67.90
7900;DHT22;3995;50.856;4.404;2023-03-14T07:21:05;13.10;67.70
7900;DHT22;3995;50.856;4.404;2023-03-14T07:23:32;13.00;67.50
7900;DHT22;3995;50.856;4.404;2023-03-14T07:26:00;13.00;67.30
7900;DHT22;3995;50.856;4.404;2023-03-14T07:28:27;12.90;67.10
7900;DHT22;3995;50.856;4.404;2023-03-14T07:30:55;12.90;67.00
7900;DHT22;3995;50.856;4.404;2023-03-14T07:33:25;12.90;67.00
7900;DHT22;3995;50.856;4.404;2023-03-14T07:35:52;12.80;66.90
7900;DHT22;3995;50.856;4.404;2023-03-14T07:38:19;12.80;66.80
7900;DHT22;3995;50.856;4.404;2023-03-14T07:40:46;12.80;66.60
7900;DHT22;3995;50.856;4.404;2023-03-14T07:43:14;12.80;66.50
7900;DHT22;3995;50.856;4.404;2023-03-14T07:45:44;12.70;66.70
7900;DHT22;3995;50.856;4.404;2023-03-14T07:48:12;12.70;66.90
7900;DHT22;3995;50.856;4.404;2023-03-14T07:50:41;12.70;67.20
7900;DHT22;3995;50.856;4.404;2023-03-14T07:53:08;12.70;67.20
7900;DHT22;3995;50.856;4.404;2023-03-14T07:55:35;12.70;67.40
7900;DHT22;3995;50.856;4.404;2023-03-14T07:58:02;12.70;67.30
7900;DHT22;3995;50.856;4.404;2023-03-14T08:00:29;12.70;67.10
7900;DHT22;3995;50.856;4.404;2023-03-14T08:02:57;12.70;66.80
7900;DHT22;3995;50.856;4.404;2023-03-14T08:05:24;12.70;66.70
7900;DHT22;3995;50.856;4.404;2023-03-14T08:07:53;12.70;66.70
7900;DHT22;3995;50.856;4.404;2023-03-14T08:10:20;12.70;66.70
7900;DHT22;3995;50.856;4.404;2023-03-14T08:12:50;12.70;66.70
7900;DHT22;3995;50.856;4.404;2023-03-14T08:15:18;12.60;66.40
7900;DHT22;3995;50.856;4.404;2023-03-14T08:17:45;12.60;66.50
7900;DHT22;3995;50.856;4.404;2023-03-14T08:20:16;12.60;66.30
7900;DHT22;3995;50.856;4.404;2023-03-14T08:22:44;12.60;66.40
7900;DHT22;3995;50.856;4.404;2023-03-14T08:25:13;12.60;66.40
7900;DHT22;3995;50.856;4.404;2023-03-14T08:27:42;12.60;66.20
7900;DHT22;3995;50.856;4.404;2023-03-14T08:30:14;12.60;66.00
7900;DHT22;3995;50.856;4.404;2023-03-14T08:32:42;12.60;65.90
7900;DHT22;3995;50.856;4.404;2023-03-14T08:35:10;12.60;65.60
7900;DHT22;3995;50.856;4.404;2023-03-14T08:37:38;12.50;65.70
7900;DHT22;3995;50.856;4.404;2023-03-14T08:40:06;12.50;65.60
7900;DHT22;3995;50.856;4.404;2023-03-14T08:42:37;12.50;65.20
7900;DHT22;3995;50.856;4.404;2023-03-14T08:45:06;12.50;65.30
7900;DHT22;3995;50.856;4.404;2023-03-14T08:47:34;12.50;65.90
7900;DHT22;3995;50.856;4.404;2023-03-14T08:50:01;12.40;65.20
7900;DHT22;3995;50.856;4.404;2023-03-14T08:52:29;12.40;65.20
7900;DHT22;3995;50.856;4.404;2023-03-14T08:54:57;12.40;65.30
7900;DHT22;3995;50.856;4.404;2023-03-14T08:57:25;12.40;65.20
7900;DHT22;3995;50.856;4.404;2023-03-14T08:59:54;12.40;65.10
7900;DHT22;3995;50.856;4.404;2023-03-14T09:02:23;12.40;65.00
7900;DHT22;3995;50.856;4.404;2023-03-14T09:04:50;12.40;65.00
7900;DHT22;3995;50.856;4.404;2023-03-14T09:07:18;12.40;64.70
7900;DHT22;3995;50.856;4.404;2023-03-14T09:09:45;12.40;64.40
7900;DHT22;3995;50.856;4.404;2023-03-14T09:12:13;12.40;64.10
7900;DHT22;3995;50.856;4.404;2023-03-14T09:14:40;12.40;64.10
7900;DHT22;3995;50.856;4.404;2023-03-14T09:17:09;12.30;64.00
7900;DHT22;3995;50.856;4.404;2023-03-14T09:19:36;12.30;64.00
7900;DHT22;3995;50.856;4.404;2023-03-14T09:22:04;12.30;64.00
7900;DHT22;3995;50.856;4.404;2023-03-14T09:24:31;12.30;64.00
7900;DHT22;3995;50.856;4.404;2023-03-14T09:26:59;12.30;64.20
7900;DHT22;3995;50.856;4.404;2023-03-14T09:29:26;12.30;64.10
7900;DHT22;3995;50.856;4.404;2023-03-14T09:31:53;12.30;64.10
7900;DHT22;3995;50.856;4.404;2023-03-14T09:34:24;12.30;63.80
7900;DHT22;3995;50.856;4.404;2023-03-14T09:36:51;12.30;63.60
7900;DHT22;3995;50.856;4.404;2023-03-14T09:39:19;12.20;63.30
7900;DHT22;3995;50.856;4.404;2023-03-14T09:41:48;12.20;63.10
7900;DHT22;3995;50.856;4.404;2023-03-14T09:44:19;12.20;63.10
7900;DHT22;3995;50.856;4.404;2023-03-14T09:46:51;12.20;63.10
7900;DHT22;3995;50.856;4.404;2023-03-14T09:49:21;12.20;63.00
7900;DHT22;3995;50.856;4.404;2023-03-14T09:51:53;12.20;62.70
7900;DHT22;3995;50.856;4.404;2023-03-14T09:54:40;12.20;62.70
7900;DHT22;3995;50.856;4.404;2023-03-14T09:57:12;12.30;62.60
7900;DHT22;3995;50.856;4.404;2023-03-14T09:59:43;12.20;62.80
7900;DHT22;3995;50.856;4.404;2023-03-14T10:02:17;12.20;62.50
7900;DHT22;3995;50.856;4.404;2023-03-14T10:04:45;12.20;62.10
7900;DHT22;3995;50.856;4.404;2023-03-14T10:07:16;12.20;61.70
7900;DHT22;3995;50.856;4.404;2023-03-14T10:09:47;12.20;61.50
7900;DHT22;3995;50.856;4.404;2023-03-14T10:12:16;12.20;61.70
7900;DHT22;3995;50.856;4.404;2023-03-14T10:14:49;12.10;61.50
7900;DHT22;3995;50.856;4.404;2023-03-14T10:17:17;12.20;61.40
7900;DHT22;3995;50.856;4.404;2023-03-14T10:19:53;12.10;61.40
7900;DHT22;3995;50.856;4.404;2023-03-14T10:22:23;12.20;61.50
7900;DHT22;3995;50.856;4.404;2023-03-14T10:24:53;12.10;61.60
7900;DHT22;3995;50.856;4.404;2023-03-14T10:27:23;12.10;61.30
7900;DHT22;3995;50.856;4.404;2023-03-14T10:29:56;12.20;61.50
7900;DHT22;3995;50.856;4.404;2023-03-14T10:32:29;12.10;61.10
7900;DHT22;3995;50.856;4.404;2023-03-14T10:35:18;12.10;61.10
7900;DHT22;3995;50.856;4.404;2023-03-14T10:37:53;12.10;61.30
7900;DHT22;3995;50.856;4.404;2023-03-14T10:40:27;12.10;61.30
7900;DHT22;3995;50.856;4.404;2023-03-14T10:42:56;12.10;61.80
7900;DHT22;3995;50.856;4.404;2023-03-14T10:45:36;12.00;62.00
7900;DHT22;3995;50.856;4.404;2023-03-14T10:48:21;12.10;62.00
7900;DHT22;3995;50.856;4.404;2023-03-14T10:50:54;12.10;61.90
7900;DHT22;3995;50.856;4.404;2023-03-14T10:53:23;12.00;62.10
7900;DHT22;3995;50.856;4.404;2023-03-14T10:55:51;12.00;62.00
7900;DHT22;3995;50.856;4.404;2023-03-14T10:58:23;12.00;62.10
7900;DHT22;3995;50.856;4.404;2023-03-14T11:01:02;12.00;62.20
7900;DHT22;3995;50.856;4.404;2023-03-14T11:03:36;12.00;62.50
7900;DHT22;3995;50.856;4.404;2023-03-14T11:06:07;12.00;62.60
7900;DHT22;3995;50.856;4.404;2023-03-14T11:08:45;12.00;62.40
7900;DHT22;3995;50.856;4.404;2023-03-14T11:11:17;12.00;62.00
7900;DHT22;3995;50.856;4.404;2023-03-14T11:13:54;11.90;62.10
7900;DHT22;3995;50.856;4.404;2023-03-14T11:16:29;12.00;62.40
7900;DHT22;3995;50.856;4.404;2023-03-14T11:21:55;11.90;62.50
7900;DHT22;3995;50.856;4.404;2023-03-14T11:24:44;11.90;62.30
7900;DHT22;3995;50.856;4.404;2023-03-14T11:27:18;11.90;62.80
7900;DHT22;3995;50.856;4.404;2023-03-14T11:29:53;11.80;62.30
7900;DHT22;3995;50.856;4.404;2023-03-14T11:32:28;11.80;62.20
7900;DHT22;3995;50.856;4.404;2023-03-14T11:35:00;11.80;62.50
7900;DHT22;3995;50.856;4.404;2023-03-14T11:37:34;11.70;62.60
7900;DHT22;3995;50.856;4.404;2023-03-14T11:40:12;11.70;62.10
7900;DHT22;3995;50.856;4.404;2023-03-14T11:42:42;11.60;62.10
7900;DHT22;3995;50.856;4.404;2023-03-14T11:45:16;11.60;62.40
7900;DHT22;3995;50.856;4.404;2023-03-14T11:47:46;11.60;62.30
7900;DHT22;3995;50.856;4.404;2023-03-14T11:50:17;11.60;62.10
7900;DHT22;3995;50.856;4.404;2023-03-14T11:52:49;11.60;62.00
7900;DHT22;3995;50.856;4.404;2023-03-14T11:55:22;11.60;62.40
7900;DHT22;3995;50.856;4.404;2023-03-14T11:57:55;11.50;62.50
7900;DHT22;3995;50.856;4.404;2023-03-14T12:00:24;11.50;62.40
7900;DHT22;3995;50.856;4.404;2023-03-14T12:02:57;11.50;62.40
7900;DHT22;3995;50.856;4.404;2023-03-14T12:05:53;11.50;62.60
7900;DHT22;3995;50.856;4.404;2023-03-14T12:08:33;11.50;62.60
7900;DHT22;3995;50.856;4.404;2023-03-14T12:11:14;11.50;62.70
7900;DHT22;3995;50.856;4.404;2023-03-14T12:13:46;11.50;62.60
7900;DHT22;3995;50.856;4.404;2023-03-14T12:16:27;11.40;62.00
7900;DHT22;3995;50.856;4.404;2023-03-14T12:18:57;11.50;61.90
7900;DHT22;3995;50.856;4.404;2023-03-14T12:21:48;11.40;62.00
7900;DHT22;3995;50.856;4.404;2023-03-14T12:24:19;11.40;62.30
7900;DHT22;3995;50.856;4.404;2023-03-14T12:26:53;11.40;62.70
7900;DHT22;3995;50.856;4.404;2023-03-14T12:29:21;11.40;62.40
7900;DHT22;3995;50.856;4.404;2023-03-14T12:31:51;11.40;62.00
7900;DHT22;3995;50.856;4.404;2023-03-14T12:34:33;11.40;62.00
7900;DHT22;3995;50.856;4.404;2023-03-14T12:37:14;11.40;62.10
7900;DHT22;3995;50.856;4.404;2023-03-14T12:39:50;11.40;61.80
7900;DHT22;3995;50.856;4.404;2023-03-14T12:42:37;11.40;62.00
7900;DHT22;3995;50.856;4.404;2023-03-14T12:45:21;11.40;62.20
7900;DHT22;3995;50.856;4.404;2023-03-14T12:48:09;11.40;62.50
7900;DHT22;3995;50.856;4.404;2023-03-14T12:50:40;11.50;62.40
7900;DHT22;3995;50.856;4.404;2023-03-14T12:53:38;11.40;62.40
7900;DHT22;3995;50.856;4.404;2023-03-14T12:56:20;11.50;62.50
7900;DHT22;3995;50.856;4.404;2023-03-14T12:59:04;11.50;62.70
7900;DHT22;3995;50.856;4.404;2023-03-14T13:01:33;11.50;62.60
7900;DHT22;3995;50.856;4.404;2023-03-14T13:04:07;11.50;62.60
7900;DHT22;3995;50.856;4.404;2023-03-14T13:06:48;11.50;62.50
7900;DHT22;3995;50.856;4.404;2023-03-14T13:12:27;11.60;62.10
7900;DHT22;3995;50.856;4.404;2023-03-14T13:15:00;11.50;62.50
7900;DHT22;3995;50.856;4.404;2023-03-14T13:17:31;11.50;62.40
7900;DHT22;3995;50.856;4.404;2023-03-14T13:20:03;11.50;62.30
7900;DHT22;3995;50.856;4.404;2023-03-14T13:22:34;11.50;62.40
7900;DHT22;3995;50.856;4.404;2023-03-14T13:25:06;11.50;62.60
7900;DHT22;3995;50.856;4.404;2023-03-14T13:27:35;11.50;62.80
7900;DHT22;3995;50.856;4.404;2023-03-14T13:30:15;11.50;63.00
7900;DHT22;3995;50.856;4.404;2023-03-14T13:32:44;11.60;63.20
7900;DHT22;3995;50.856;4.404;2023-03-14T13:35:18;11.50;63.20
7900;DHT22;3995;50.856;4.404;2023-03-14T13:37:46;11.60;63.20
7900;DHT22;3995;50.856;4.404;2023-03-14T13:40:24;11.60;63.20
7900;DHT22;3995;50.856;4.404;2023-03-14T13:43:04;11.60;63.10
7900;DHT22;3995;50.856;4.404;2023-03-14T13:45:45;11.60;63.00
7900;DHT22;3995;50.856;4.404;2023-03-14T13:48:13;11.70;62.70
7900;DHT22;3995;50.856;4.404;2023-03-14T13:50:54;11.60;63.30
7900;DHT22;3995;50.856;4.404;2023-03-14T13:53:23;11.70;62.80
7900;DHT22;3995;50.856;4.404;2023-03-14T13:55:51;11.70;62.90
7900;DHT22;3995;50.856;4.404;2023-03-14T13:58:24;11.70;62.90
7900;DHT22;3995;50.856;4.404;2023-03-14T14:01:14;11.70;62.80
7900;DHT22;3995;50.856;4.404;2023-03-14T14:03:44;11.80;62.80
7900;DHT22;3995;50.856;4.404;2023-03-14T14:06:23;11.70;62.70
7900;DHT22;3995;50.856;4.404;2023-03-14T14:08:53;11.70;62.50
7900;DHT22;3995;50.856;4.404;2023-03-14T14:11:36;11.70;62.50
7900;DHT22;3995;50.856;4.404;2023-03-14T14:14:10;11.80;62.60
7900;DHT22;3995;50.856;4.404;2023-03-14T14:16:41;11.80;62.60
7900;DHT22;3995;50.856;4.404;2023-03-14T14:19:10;11.80;62.60
7900;DHT22;3995;50.856;4.404;2023-03-14T14:21:38;11.80;62.70
7900;DHT22;3995;50.856;4.404;2023-03-14T14:24:05;11.80;62.40
7900;DHT22;3995;50.856;4.404;2023-03-14T14:26:32;11.90;62.20
7900;DHT22;3995;50.856;4.404;2023-03-14T14:29:02;11.90;62.00
7900;DHT22;3995;50.856;4.404;2023-03-14T14:31:30;11.90;61.10
7900;DHT22;3995;50.856;4.404;2023-03-14T14:34:00;11.90;60.20
7900;DHT22;3995;50.856;4.404;2023-03-14T14:36:29;11.90;59.30
7900;DHT22;3995;50.856;4.404;2023-03-14T14:39:03;11.90;58.60
7900;DHT22;3995;50.856;4.404;2023-03-14T14:41:32;11.90;57.80
7900;DHT22;3995;50.856;4.404;2023-03-14T14:44:03;11.90;57.40
7900;DHT22;3995;50.856;4.404;2023-03-14T14:46:32;11.90;56.90
7900;DHT22;3995;50.856;4.404;2023-03-14T14:49:05;11.90;56.80
7900;DHT22;3995;50.856;4.404;2023-03-14T14:51:38;11.90;55.40
7900;DHT22;3995;50.856;4.404;2023-03-14T14:54:15;11.90;55.00
7900;DHT22;3995;50.856;4.404;2023-03-14T14:56:48;11.90;54.60
7900;DHT22;3995;50.856;4.404;2023-03-14T14:59:22;11.80;53.30
7900;DHT22;3995;50.856;4.404;2023-03-14T15:01:55;11.80;52.00
7900;DHT22;3995;50.856;4.404;2023-03-14T15:04:23;11.70;51.50
7900;DHT22;3995;50.856;4.404;2023-03-14T15:06:51;11.60;50.40
7900;DHT22;3995;50.856;4.404;2023-03-14T15:09:19;11.60;49.90
7900;DHT22;3995;50.856;4.404;2023-03-14T15:11:46;11.60;49.30
7900;DHT22;3995;50.856;4.404;2023-03-14T15:14:14;11.60;49.20
7900;DHT22;3995;50.856;4.404;2023-03-14T15:16:41;11.60;49.20
7900;DHT22;3995;50.856;4.404;2023-03-14T15:19:12;11.60;49.00
7900;DHT22;3995;50.856;4.404;2023-03-14T15:21:43;11.60;49.10
7900;DHT22;3995;50.856;4.404;2023-03-14T15:24:11;11.60;49.30
7900;DHT22;3995;50.856;4.404;2023-03-14T15:26:38;11.60;49.10
7900;DHT22;3995;50.856;4.404;2023-03-14T15:29:06;11.60;49.00
7900;DHT22;3995;50.856;4.404;2023-03-14T15:31:35;11.70;49.30
7900;DHT22;3995;50.856;4.404;2023-03-14T15:34:02;11.70;49.00
7900;DHT22;3995;50.856;4.404;2023-03-14T15:36:31;11.70;48.90
7900;DHT22;3995;50.856;4.404;2023-03-14T15:39:00;11.70;49.10
7900;DHT22;3995;50.856;4.404;2023-03-14T15:41:27;11.80;48.70
7900;DHT22;3995;50.856;4.404;2023-03-14T15:43:57;11.80;48.30
7900;DHT22;3995;50.856;4.404;2023-03-14T15:46:24;11.80;48.10
7900;DHT22;3995;50.856;4.404;2023-03-14T15:48:51;11.80;48.10
7900;DHT22;3995;50.856;4.404;2023-03-14T15:51:19;11.80;48.10
7900;DHT22;3995;50.856;4.404;2023-03-14T15:53:47;11.80;47.80
7900;DHT22;3995;50.856;4.404;2023-03-14T15:56:17;11.80;47.70
7900;DHT22;3995;50.856;4.404;2023-03-14T15:58:45;11.80;47.90
7900;DHT22;3995;50.856;4.404;2023-03-14T16:01:13;11.80;48.00
7900;DHT22;3995;50.856;4.404;2023-03-14T16:03:41;11.80;48.00
7900;DHT22;3995;50.856;4.404;2023-03-14T16:06:10;11.80;47.80
7900;DHT22;3995;50.856;4.404;2023-03-14T16:08:38;11.80;47.60
7900;DHT22;3995;50.856;4.404;2023-03-14T16:11:06;11.80;47.50
7900;DHT22;3995;50.856;4.404;2023-03-14T16:13:35;11.80;47.00
7900;DHT22;3995;50.856;4.404;2023-03-14T16:16:05;11.80;46.90
7900;DHT22;3995;50.856;4.404;2023-03-14T16:18:34;11.80;47.50
7900;DHT22;3995;50.856;4.404;2023-03-14T16:21:04;11.80;47.50
7900;DHT22;3995;50.856;4.404;2023-03-14T16:23:33;11.80;47.10
7900;DHT22;3995;50.856;4.404;2023-03-14T16:26:03;11.80;47.00